createdAt,value
2022-10-17T04:37:46.599Z,10.43
2022-10-17T04:42:11.831Z,7.03
2022-10-17T04:46:37.064Z,7.70
2022-10-17T04:51:06.625Z,6.40
2022-10-17T04:55:31.874Z,8.53
2022-10-17T04:59:57.308Z,6.10
2022-10-17T05:04:24.823Z,5.03
2022-10-17T05:08:50.336Z,4.90
2022-10-17T05:13:15.953Z,6.83
2022-10-17T05:17:41.314Z,4.80
2022-10-17T05:22:07.019Z,7.73
2022-10-17T05:26:32.363Z,5.70
2022-10-17T05:30:57.648Z,5.33
2022-10-17T05:35:22.940Z,5.90
2022-10-17T05:39:51.326Z,6.70
2022-10-17T05:44:16.929Z,5.00
2022-10-17T05:48:42.112Z,9.43
2022-10-17T05:53:07.304Z,4.93
2022-10-17T05:57:32.547Z,6.30
2022-10-17T06:01:57.783Z,5.93
2022-10-17T06:06:23.428Z,5.00
2022-10-17T06:10:51.657Z,4.40
2022-10-17T06:15:16.970Z,4.77
2022-10-17T06:19:42.174Z,13.67
2022-10-17T06:24:07.417Z,3.63
2022-10-17T06:28:33.320Z,5.33
2022-10-17T06:32:58.617Z,11.40
2022-10-17T06:37:23.902Z,5.73
2022-10-17T06:41:49.127Z,3.50
2022-10-17T06:46:17.110Z,5.90
2022-10-17T06:50:42.388Z,6.63
2022-10-17T06:55:07.905Z,3.53
2022-10-17T06:59:33.082Z,11.53
2022-10-17T07:03:58.261Z,6.83
2022-10-17T07:08:24.122Z,4.93
2022-10-17T07:12:49.344Z,6.53
2022-10-17T07:17:14.587Z,5.17
2022-10-17T07:21:39.763Z,6.87
2022-10-17T07:26:11.196Z,5.23
2022-10-17T07:30:36.363Z,6.70
2022-10-17T07:35:01.554Z,6.70
2022-10-17T07:39:26.786Z,3.63
2022-10-17T07:43:51.975Z,3.43
2022-10-17T07:48:17.214Z,3.17
2022-10-17T07:52:43.324Z,5.13
2022-10-17T07:57:08.945Z,8.60
2022-10-17T08:01:34.227Z,4.63
2022-10-17T08:06:00.950Z,4.73
2022-10-17T08:10:29.689Z,7.63
2022-10-17T08:14:54.957Z,1.97
2022-10-17T08:19:20.129Z,7.20
2022-10-17T08:23:45.448Z,3.40
2022-10-17T08:28:10.757Z,4.80
2022-10-17T08:32:35.993Z,2.50
2022-10-17T08:46:06.858Z,4.23
2022-10-17T08:50:55.685Z,3.03
2022-10-17T09:00:19.249Z,3.00
2022-10-17T09:05:23.982Z,4.70
2022-10-17T09:19:26.096Z,6.03
2022-10-17T09:24:09.156Z,6.67
2022-10-17T09:28:41.054Z,2.33
2022-10-17T09:33:28.790Z,3.43
2022-10-17T09:51:31.462Z,2.87
2022-10-17T09:56:00.338Z,7.87
2022-10-17T10:00:43.107Z,2.13
2022-10-17T10:10:01.896Z,2.73
2022-10-17T10:14:37.558Z,4.53
2022-10-17T10:19:20.310Z,8.00
2022-10-17T10:24:09.759Z,8.20
2022-10-17T10:28:36.711Z,4.30
2022-10-17T10:55:27.165Z,4.47
2022-10-17T11:00:02.280Z,3.73
2022-10-17T11:04:32.101Z,5.30
2022-10-17T11:09:36.539Z,9.60
2022-10-17T11:14:22.951Z,4.60
2022-10-17T11:19:06.649Z,4.80
2022-10-17T11:23:46.620Z,8.00
2022-10-17T11:28:18.577Z,4.53
2022-10-17T11:32:57.354Z,8.63
2022-10-17T11:37:29.166Z,6.87
2022-10-17T11:55:59.369Z,4.47
2022-10-17T12:00:56.354Z,2.57
2022-10-17T12:05:27.306Z,4.13
2022-10-17T12:10:04.011Z,5.00
2022-10-17T12:14:46.713Z,7.73
2022-10-17T12:19:23.387Z,4.87
2022-10-17T12:23:55.464Z,4.13
2022-10-17T12:28:33.083Z,7.80
2022-10-17T12:33:23.507Z,3.63
2022-10-17T12:37:48.607Z,6.40
2022-10-17T12:42:31.914Z,2.93
2022-10-17T12:47:07.916Z,7.83
2022-10-17T12:52:31.137Z,9.77
2022-10-17T12:56:57.719Z,6.10
2022-10-17T13:01:30.656Z,4.53
2022-10-17T13:06:01.124Z,4.67
2022-10-17T13:10:36.370Z,6.50
2022-10-17T13:15:07.269Z,5.73
2022-10-17T13:19:43.822Z,8.83
2022-10-17T13:24:22.806Z,4.17
2022-10-17T13:29:13.110Z,5.03
2022-10-17T13:33:40.923Z,12.67
2022-10-17T13:38:09.936Z,7.47
2022-10-17T13:42:40.683Z,4.97
2022-10-17T13:47:05.857Z,8.97
2022-10-17T13:51:31.695Z,6.77
2022-10-17T13:56:26.447Z,11.33
2022-10-17T14:00:52.506Z,10.60
2022-10-17T14:05:20.977Z,11.50
2022-10-17T14:09:47.267Z,9.30
2022-10-17T14:14:23.717Z,7.40
2022-10-17T14:18:51.125Z,17.03
2022-10-17T14:23:37.023Z,10.20
2022-10-17T14:28:11.682Z,7.40
2022-10-17T14:32:37.743Z,7.70
2022-10-17T14:37:15.365Z,11.63
2022-10-17T14:41:46.225Z,11.50
2022-10-17T14:46:17.722Z,8.20
2022-10-17T14:51:14.187Z,8.23
2022-10-17T14:55:55.664Z,10.43
2022-10-17T15:00:22.657Z,9.00
2022-10-17T15:04:47.904Z,7.23
2022-10-17T15:09:13.140Z,9.00
2022-10-17T15:13:43.316Z,12.30
2022-10-17T15:18:12.695Z,11.33
2022-10-17T15:22:37.934Z,7.47
2022-10-17T15:27:07.457Z,9.90
2022-10-17T15:31:33.264Z,10.60
2022-10-17T15:40:29.663Z,8.57
2022-10-17T15:44:55.521Z,7.43
2022-10-17T15:49:20.811Z,8.70
2022-10-17T15:53:46.630Z,10.37
2022-10-17T15:58:16.471Z,10.80
2022-10-17T16:02:41.642Z,10.20
2022-10-17T16:07:07.369Z,14.57
2022-10-17T16:11:39.234Z,12.80
2022-10-17T16:16:04.462Z,11.70
2022-10-17T16:20:29.728Z,14.60
2022-10-17T16:24:58.852Z,10.27
2022-10-17T16:29:24.109Z,8.33
2022-10-17T16:33:53.125Z,10.90
2022-10-17T16:38:18.801Z,11.70
2022-10-17T16:42:44.603Z,8.40
2022-10-17T16:47:10.006Z,8.53
2022-10-17T16:51:36.014Z,10.73
2022-10-17T16:56:05.195Z,12.17
2022-10-17T17:00:30.545Z,15.60
2022-10-17T17:04:55.770Z,9.10
2022-10-17T17:09:21.083Z,12.67
2022-10-17T17:13:46.453Z,14.73
2022-10-17T17:18:14.032Z,12.40
2022-10-17T17:22:39.395Z,10.07
2022-10-17T17:27:04.672Z,13.03
2022-10-17T17:31:32.415Z,13.27
2022-10-17T17:36:00.118Z,10.60
2022-10-17T17:40:25.371Z,14.47
2022-10-17T17:44:50.945Z,14.43
2022-10-17T17:49:16.222Z,14.20
2022-10-17T17:53:41.640Z,13.40
2022-10-17T17:58:08.263Z,14.37
2022-10-17T18:02:33.553Z,12.23
2022-10-17T18:06:58.780Z,10.20
2022-10-17T18:11:24.382Z,18.30
2022-10-17T18:15:51.918Z,13.03
2022-10-17T18:20:17.189Z,13.77
2022-10-17T18:24:42.439Z,15.23
2022-10-17T18:29:07.694Z,17.83
2022-10-17T18:33:33.171Z,18.73
2022-10-17T18:37:58.437Z,13.23
2022-10-17T18:42:23.897Z,17.10
2022-10-17T18:46:49.904Z,14.40
2022-10-17T18:51:19.835Z,16.23
2022-10-17T19:00:17.250Z,17.70
2022-10-17T19:04:42.523Z,18.50
2022-10-17T19:09:11.006Z,13.80
2022-10-17T19:13:36.683Z,18.13
2022-10-17T19:18:01.961Z,14.40
2022-10-17T19:22:28.317Z,11.23
2022-10-17T19:26:57.848Z,16.80
2022-10-17T19:31:27.023Z,15.90
2022-10-17T19:36:06.648Z,7.80
2022-10-17T19:40:31.930Z,9.50
2022-10-17T19:44:57.225Z,11.47
2022-10-17T19:49:22.420Z,8.33
2022-10-17T19:53:47.921Z,11.87
2022-10-17T19:58:13.167Z,11.40
2022-10-17T20:02:38.354Z,11.63
2022-10-17T20:07:03.608Z,9.60
2022-10-17T20:11:29.922Z,12.87
2022-10-17T20:15:56.992Z,12.27
2022-10-17T20:20:22.319Z,11.40
2022-10-17T20:24:47.506Z,10.50
2022-10-17T20:29:17.590Z,12.83
2022-10-17T20:33:43.430Z,9.93
2022-10-17T20:38:08.740Z,9.13
2022-10-17T20:42:33.997Z,8.83
2022-10-17T20:47:02.332Z,11.90
2022-10-17T20:51:28.313Z,10.30
2022-10-17T20:56:25.702Z,11.13
2022-10-17T21:00:50.919Z,11.00
2022-10-17T21:05:16.736Z,8.50
2022-10-17T21:09:42.264Z,10.97
2022-10-17T21:14:08.036Z,12.10
2022-10-17T21:18:33.332Z,10.80
2022-10-17T21:23:00.542Z,17.57
2022-10-17T21:27:26.073Z,10.43
2022-10-17T21:31:51.632Z,14.00
2022-10-17T21:36:18.615Z,10.97
2022-10-17T21:40:46.900Z,7.30
2022-10-17T21:45:15.717Z,11.13
2022-10-17T21:49:45.428Z,8.03
2022-10-17T21:54:11.234Z,7.40
2022-10-17T21:58:37.160Z,5.70
2022-10-17T22:03:02.432Z,6.90
2022-10-17T22:07:27.640Z,10.30
2022-10-17T22:11:56.589Z,5.63
2022-10-17T22:16:22.712Z,10.50
2022-10-17T22:20:47.960Z,11.30
2022-10-17T23:44:56.769Z,7.20
2022-10-17T23:49:21.954Z,4.33
2022-10-17T23:53:47.414Z,5.60
2022-10-17T23:58:12.650Z,13.80
